sensor_id;sensor_type;location;lat;lon;timestamp;pressure;altitude;pressure_sealevel;temperature;humidity
55685;BME280;41883;49.544;8.646;2023-07-20T00:00:22;100192.00;;;21.01;nan
55685;BME280;41883;49.544;8.646;2023-07-20T00:05:16;100191.44;;;20.81;nan
55685;BME280;41883;49.544;8.646;2023-07-20T00:07:52;100170.41;;;20.77;nan
55685;BME280;41883;49.544;8.646;2023-07-20T00:10:22;100152.66;;;20.76;nan
55685;BME280;41883;49.544;8.646;2023-07-20T00:17:41;100208.84;;;20.78;nan
55685;BME280;41883;49.544;8.646;2023-07-20T00:25:08;100193.81;;;20.58;nan
55685;BME280;41883;49.544;8.646;2023-07-20T00:30:04;100163.66;;;20.56;nan
55685;BME280;41883;49.544;8.646;2023-07-20T00:32:33;100153.31;;;20.60;nan
55685;BME280;41883;49.544;8.646;2023-07-20T00:54:32;100164.03;;;20.23;nan
55685;BME280;41883;49.544;8.646;2023-07-20T00:57:01;100195.59;;;20.28;nan
55685;BME280;41883;49.544;8.646;2023-07-20T01:01:58;100185.91;;;20.27;nan
55685;BME280;41883;49.544;8.646;2023-07-20T01:04:27;100201.25;;;20.20;nan
55685;BME280;41883;49.544;8.646;2023-07-20T01:07:11;100199.31;;;20.08;nan
55685;BME280;41883;49.544;8.646;2023-07-20T01:09:51;100164.13;;;19.98;nan
55685;BME280;41883;49.544;8.646;2023-07-20T01:15:01;100195.16;;;19.69;nan
55685;BME280;41883;49.544;8.646;2023-07-20T01:19:53;100178.81;;;19.45;nan
55685;BME280;41883;49.544;8.646;2023-07-20T01:30:42;100185.50;;;19.04;nan
55685;BME280;41883;49.544;8.646;2023-07-20T01:33:14;100154.44;;;18.90;nan
55685;BME280;41883;49.544;8.646;2023-07-20T01:45:27;100190.28;;;18.37;nan
55685;BME280;41883;49.544;8.646;2023-07-20T02:00:01;100165.50;;;18.03;nan
55685;BME280;41883;49.544;8.646;2023-07-20T02:09:51;100178.69;;;17.78;nan
55685;BME280;41883;49.544;8.646;2023-07-20T02:12:16;100181.16;;;17.73;nan
55685;BME280;41883;49.544;8.646;2023-07-20T02:17:08;100174.56;;;17.62;nan
55685;BME280;41883;49.544;8.646;2023-07-20T02:22:05;100149.06;;;17.53;nan
55685;BME280;41883;49.544;8.646;2023-07-20T02:24:38;100165.97;;;17.47;nan
55685;BME280;41883;49.544;8.646;2023-07-20T02:56:18;100189.91;;;16.94;nan
55685;BME280;41883;49.544;8.646;2023-07-20T03:08:43;100183.56;;;16.95;nan
55685;BME280;41883;49.544;8.646;2023-07-20T03:18:29;100168.38;;;17.15;nan
55685;BME280;41883;49.544;8.646;2023-07-20T03:20:58;100164.06;;;17.08;nan
55685;BME280;41883;49.544;8.646;2023-07-20T03:28:20;100186.00;;;16.83;nan
55685;BME280;41883;49.544;8.646;2023-07-20T03:52:43;100363.34;;;16.67;nan
55685;BME280;41883;49.544;8.646;2023-07-20T03:59:59;100208.25;;;16.55;nan
55685;BME280;41883;49.544;8.646;2023-07-20T04:04:56;87209.31;;;22.38;nan
55685;BME280;41883;49.544;8.646;2023-07-20T04:19:32;100193.41;;;16.88;nan
55685;BME280;41883;49.544;8.646;2023-07-20T04:29:16;100212.38;;;17.13;nan
55685;BME280;41883;49.544;8.646;2023-07-20T04:51:09;100233.38;;;18.16;nan
55685;BME280;41883;49.544;8.646;2023-07-20T04:53:35;100216.94;;;18.19;nan
55685;BME280;41883;49.544;8.646;2023-07-20T05:05:43;100207.84;;;18.33;nan
55685;BME280;41883;49.544;8.646;2023-07-20T05:08:18;100218.94;;;18.37;nan
55685;BME280;41883;49.544;8.646;2023-07-20T05:10:44;100202.66;;;18.38;nan
55685;BME280;41883;49.544;8.646;2023-07-20T05:13:13;100231.69;;;18.41;nan
55685;BME280;41883;49.544;8.646;2023-07-20T05:15:41;100229.59;;;18.50;nan
55685;BME280;41883;49.544;8.646;2023-07-20T05:18:09;100220.94;;;18.55;nan
55685;BME280;41883;49.544;8.646;2023-07-20T05:20:35;100222.56;;;18.62;nan
55685;BME280;41883;49.544;8.646;2023-07-20T05:23:02;100218.00;;;18.70;nan
55685;BME280;41883;49.544;8.646;2023-07-20T05:25:28;100209.53;;;18.73;nan
55685;BME280;41883;49.544;8.646;2023-07-20T05:30:20;100207.19;;;18.89;nan
55685;BME280;41883;49.544;8.646;2023-07-20T05:32:52;100226.56;;;18.92;nan
55685;BME280;41883;49.544;8.646;2023-07-20T05:40:12;100218.78;;;19.22;nan
55685;BME280;41883;49.544;8.646;2023-07-20T05:57:10;100254.69;;;19.78;nan
55685;BME280;41883;49.544;8.646;2023-07-20T06:02:02;100409.59;;;20.27;nan
55685;BME280;41883;49.544;8.646;2023-07-20T06:21:31;100270.25;;;22.07;nan
55685;BME280;41883;49.544;8.646;2023-07-20T06:28:49;100263.97;;;21.59;nan
55685;BME280;41883;49.544;8.646;2023-07-20T06:36:09;100293.31;;;21.91;nan
55685;BME280;41883;49.544;8.646;2023-07-20T06:38:35;100265.66;;;22.55;nan
55685;BME280;41883;49.544;8.646;2023-07-20T06:45:58;100287.38;;;22.48;nan
55685;BME280;41883;49.544;8.646;2023-07-20T06:58:12;100411.94;;;23.78;nan
55685;BME280;41883;49.544;8.646;2023-07-20T07:00:41;100409.69;;;24.04;nan
55685;BME280;41883;49.544;8.646;2023-07-20T07:03:10;100416.28;;;23.79;nan
55685;BME280;41883;49.544;8.646;2023-07-20T07:05:39;100421.31;;;24.04;nan
55685;BME280;41883;49.544;8.646;2023-07-20T07:08:07;100275.94;;;24.57;nan
55685;BME280;41883;49.544;8.646;2023-07-20T07:13:04;100290.78;;;25.75;nan
55685;BME280;41883;49.544;8.646;2023-07-20T07:15:31;100299.63;;;25.65;nan
55685;BME280;41883;49.544;8.646;2023-07-20T07:17:57;100309.91;;;25.63;nan
55685;BME280;41883;49.544;8.646;2023-07-20T07:27:41;100283.81;;;26.69;nan
55685;BME280;41883;49.544;8.646;2023-07-20T07:32:33;100257.31;;;26.86;nan
55685;BME280;41883;49.544;8.646;2023-07-20T07:39:51;100301.13;;;28.44;nan
55685;BME280;41883;49.544;8.646;2023-07-20T07:44:49;100279.09;;;28.50;nan
55685;BME280;41883;49.544;8.646;2023-07-20T07:54:42;100286.38;;;25.69;nan
55685;BME280;41883;49.544;8.646;2023-07-20T07:57:08;100426.56;;;24.78;nan
55685;BME280;41883;49.544;8.646;2023-07-20T07:59:40;100424.34;;;23.91;nan
55685;BME280;41883;49.544;8.646;2023-07-20T08:02:05;100423.41;;;23.85;nan
55685;BME280;41883;49.544;8.646;2023-07-20T08:04:34;100418.47;;;23.13;nan
55685;BME280;41883;49.544;8.646;2023-07-20T08:06:59;100423.25;;;23.11;nan
55685;BME280;41883;49.544;8.646;2023-07-20T08:09:27;100418.63;;;23.35;nan
55685;BME280;41883;49.544;8.646;2023-07-20T08:14:19;100318.56;;;25.38;nan
55685;BME280;41883;49.544;8.646;2023-07-20T08:21:40;100272.13;;;27.98;nan
55685;BME280;41883;49.544;8.646;2023-07-20T08:24:08;100370.25;;;27.91;nan
55685;BME280;41883;49.544;8.646;2023-07-20T08:26:34;100307.97;;;28.21;nan
55685;BME280;41883;49.544;8.646;2023-07-20T08:29:00;100301.19;;;28.08;nan
55685;BME280;41883;49.544;8.646;2023-07-20T08:38:44;100280.28;;;25.51;nan
55685;BME280;41883;49.544;8.646;2023-07-20T08:41:10;100432.41;;;25.09;nan
55685;BME280;41883;49.544;8.646;2023-07-20T08:43:40;100431.09;;;24.73;nan
55685;BME280;41883;49.544;8.646;2023-07-20T08:46:07;100436.53;;;24.56;nan
55685;BME280;41883;49.544;8.646;2023-07-20T08:55:55;100305.06;;;29.81;nan
55685;BME280;41883;49.544;8.646;2023-07-20T08:58:22;100299.78;;;30.48;nan
55685;BME280;41883;49.544;8.646;2023-07-20T09:00:49;100326.16;;;31.25;nan
55685;BME280;41883;49.544;8.646;2023-07-20T09:03:16;100290.56;;;31.11;nan
55685;BME280;41883;49.544;8.646;2023-07-20T09:08:10;100292.19;;;31.31;nan
55685;BME280;41883;49.544;8.646;2023-07-20T09:10:38;100321.34;;;31.17;nan
55685;BME280;41883;49.544;8.646;2023-07-20T09:13:04;100305.69;;;30.61;nan
55685;BME280;41883;49.544;8.646;2023-07-20T09:15:30;100317.28;;;30.18;nan
55685;BME280;41883;49.544;8.646;2023-07-20T09:20:22;100310.69;;;28.26;nan
55685;BME280;41883;49.544;8.646;2023-07-20T09:22:52;100271.56;;;27.81;nan
55685;BME280;41883;49.544;8.646;2023-07-20T09:30:13;100296.53;;;28.24;nan
55685;BME280;41883;49.544;8.646;2023-07-20T09:37:39;100272.13;;;32.07;nan
55685;BME280;41883;49.544;8.646;2023-07-20T09:40:07;100318.84;;;31.78;nan
55685;BME280;41883;49.544;8.646;2023-07-20T09:42:36;100313.41;;;32.79;nan
55685;BME280;41883;49.544;8.646;2023-07-20T09:45:06;100315.25;;;33.34;nan
55685;BME280;41883;49.544;8.646;2023-07-20T09:47:36;100322.41;;;32.94;nan
55685;BME280;41883;49.544;8.646;2023-07-20T09:50:02;100316.38;;;32.69;nan
55685;BME280;41883;49.544;8.646;2023-07-20T09:52:29;100316.88;;;32.85;nan
55685;BME280;41883;49.544;8.646;2023-07-20T09:54:57;100304.38;;;32.24;nan
55685;BME280;41883;49.544;8.646;2023-07-20T09:57:25;100304.91;;;31.41;nan
55685;BME280;41883;49.544;8.646;2023-07-20T10:02:21;100302.13;;;29.78;nan
55685;BME280;41883;49.544;8.646;2023-07-20T10:04:51;100306.06;;;29.12;nan
55685;BME280;41883;49.544;8.646;2023-07-20T10:09:48;100296.22;;;28.41;nan
55685;BME280;41883;49.544;8.646;2023-07-20T10:12:19;100295.50;;;28.95;nan
55685;BME280;41883;49.544;8.646;2023-07-20T10:19:55;100291.56;;;30.24;nan
55685;BME280;41883;49.544;8.646;2023-07-20T10:24:54;100298.31;;;31.23;nan
55685;BME280;41883;49.544;8.646;2023-07-20T10:27:20;100389.47;;;32.96;nan
55685;BME280;41883;49.544;8.646;2023-07-20T10:29:54;100387.16;;;34.35;nan
55685;BME280;41883;49.544;8.646;2023-07-20T10:32:22;100377.56;;;35.04;nan
55685;BME280;41883;49.544;8.646;2023-07-20T10:34:52;100370.84;;;36.14;nan
55685;BME280;41883;49.544;8.646;2023-07-20T10:37:53;100369.53;;;35.94;nan
55685;BME280;41883;49.544;8.646;2023-07-20T10:40:38;100363.50;;;36.74;nan
55685;BME280;41883;49.544;8.646;2023-07-20T10:43:05;100366.56;;;37.32;nan
55685;BME280;41883;49.544;8.646;2023-07-20T10:45:53;100366.06;;;36.32;nan
55685;BME280;41883;49.544;8.646;2023-07-20T10:48:24;100359.72;;;34.75;nan
55685;BME280;41883;49.544;8.646;2023-07-20T10:51:14;100213.09;;;33.65;nan
55685;BME280;41883;49.544;8.646;2023-07-20T10:53:45;100259.66;;;33.20;nan
55685;BME280;41883;49.544;8.646;2023-07-20T11:01:14;100233.28;;;34.49;nan
55685;BME280;41883;49.544;8.646;2023-07-20T11:03:48;100241.47;;;35.15;nan
55685;BME280;41883;49.544;8.646;2023-07-20T11:06:31;100244.44;;;35.92;nan
55685;BME280;41883;49.544;8.646;2023-07-20T11:11:40;100248.56;;;34.24;nan
55685;BME280;41883;49.544;8.646;2023-07-20T11:14:11;100202.41;;;34.26;nan
55685;BME280;41883;49.544;8.646;2023-07-20T11:16:47;100236.88;;;33.78;nan
55685;BME280;41883;49.544;8.646;2023-07-20T11:21:44;100247.13;;;31.29;nan
55685;BME280;41883;49.544;8.646;2023-07-20T11:24:10;100239.97;;;30.04;nan
55685;BME280;41883;49.544;8.646;2023-07-20T11:26:47;100227.63;;;29.53;nan
55685;BME280;41883;49.544;8.646;2023-07-20T11:31:41;100214.41;;;32.86;nan
55685;BME280;41883;49.544;8.646;2023-07-20T11:34:11;100231.63;;;33.59;nan
55685;BME280;41883;49.544;8.646;2023-07-20T11:36:40;100213.69;;;33.39;nan
55685;BME280;41883;49.544;8.646;2023-07-20T11:43:59;100229.59;;;30.97;nan
55685;BME280;41883;49.544;8.646;2023-07-20T11:46:24;100220.25;;;30.84;nan
55685;BME280;41883;49.544;8.646;2023-07-20T11:48:56;100222.47;;;30.58;nan
55685;BME280;41883;49.544;8.646;2023-07-20T11:51:22;100197.09;;;30.77;nan
55685;BME280;41883;49.544;8.646;2023-07-20T11:53:48;100209.66;;;30.78;nan
55685;BME280;41883;49.544;8.646;2023-07-20T11:56:13;100211.53;;;31.01;nan
55685;BME280;41883;49.544;8.646;2023-07-20T11:58:43;100200.41;;;30.55;nan
55685;BME280;41883;49.544;8.646;2023-07-20T12:01:09;100199.28;;;30.37;nan
55685;BME280;41883;49.544;8.646;2023-07-20T12:03:36;100190.56;;;30.11;nan
55685;BME280;41883;49.544;8.646;2023-07-20T12:06:08;100230.09;;;30.08;nan
55685;BME280;41883;49.544;8.646;2023-07-20T12:10:59;100192.03;;;28.55;nan
55685;BME280;41883;49.544;8.646;2023-07-20T12:13:38;100181.53;;;28.28;nan
55685;BME280;41883;49.544;8.646;2023-07-20T12:16:09;100230.16;;;28.40;nan
55685;BME280;41883;49.544;8.646;2023-07-20T12:18:35;100173.63;;;28.32;nan
55685;BME280;41883;49.544;8.646;2023-07-20T12:23:26;100181.22;;;28.35;nan
55685;BME280;41883;49.544;8.646;2023-07-20T12:28:19;100161.28;;;27.59;nan
55685;BME280;41883;49.544;8.646;2023-07-20T12:30:46;100146.09;;;27.63;nan
55685;BME280;41883;49.544;8.646;2023-07-20T12:33:12;100175.09;;;27.99;nan
55685;BME280;41883;49.544;8.646;2023-07-20T12:35:41;100227.72;;;28.49;nan
55685;BME280;41883;49.544;8.646;2023-07-20T12:38:06;100174.38;;;28.97;nan
55685;BME280;41883;49.544;8.646;2023-07-20T12:40:31;100175.63;;;29.50;nan
55685;BME280;41883;49.544;8.646;2023-07-20T12:42:57;100226.84;;;29.13;nan
55685;BME280;41883;49.544;8.646;2023-07-20T12:45:22;100163.38;;;29.76;nan
55685;BME280;41883;49.544;8.646;2023-07-20T12:47:48;100181.38;;;30.01;nan
55685;BME280;41883;49.544;8.646;2023-07-20T12:50:13;100173.63;;;29.90;nan
55685;BME280;41883;49.544;8.646;2023-07-20T12:52:39;100172.03;;;29.25;nan
55685;BME280;41883;49.544;8.646;2023-07-20T12:55:09;100160.78;;;29.32;nan
55685;BME280;41883;49.544;8.646;2023-07-20T12:57:35;100220.69;;;29.32;nan
55685;BME280;41883;49.544;8.646;2023-07-20T13:00:01;100149.53;;;29.09;nan
55685;BME280;41883;49.544;8.646;2023-07-20T13:09:53;100143.34;;;30.15;nan
55685;BME280;41883;49.544;8.646;2023-07-20T13:24:26;100162.81;;;31.41;nan
55685;BME280;41883;49.544;8.646;2023-07-20T13:26:52;100114.97;;;31.25;nan
55685;BME280;41883;49.544;8.646;2023-07-20T13:29:17;100138.25;;;31.22;nan
55685;BME280;41883;49.544;8.646;2023-07-20T13:31:45;100122.44;;;30.67;nan
55685;BME280;41883;49.544;8.646;2023-07-20T13:34:11;100125.53;;;30.80;nan
55685;BME280;41883;49.544;8.646;2023-07-20T13:36:36;100116.41;;;30.71;nan
55685;BME280;41883;49.544;8.646;2023-07-20T13:39:02;100100.16;;;30.60;nan
55685;BME280;41883;49.544;8.646;2023-07-20T13:41:29;100102.53;;;30.48;nan
55685;BME280;41883;49.544;8.646;2023-07-20T13:43:57;100107.56;;;30.17;nan
55685;BME280;41883;49.544;8.646;2023-07-20T13:48:48;100108.88;;;29.76;nan
55685;BME280;41883;49.544;8.646;2023-07-20T13:51:13;100132.06;;;29.98;nan
55685;BME280;41883;49.544;8.646;2023-07-20T13:56:04;100089.97;;;29.61;nan
55685;BME280;41883;49.544;8.646;2023-07-20T13:58:29;100109.44;;;29.49;nan
55685;BME280;41883;49.544;8.646;2023-07-20T14:00:55;100163.38;;;29.76;nan
55685;BME280;41883;49.544;8.646;2023-07-20T14:03:20;100098.09;;;29.90;nan
55685;BME280;41883;49.544;8.646;2023-07-20T14:05:45;100108.38;;;30.17;nan
55685;BME280;41883;49.544;8.646;2023-07-20T14:17:51;100095.28;;;29.18;nan
55685;BME280;41883;49.544;8.646;2023-07-20T14:27:33;100088.75;;;28.85;nan
55685;BME280;41883;49.544;8.646;2023-07-20T14:42:04;100061.66;;;28.20;nan
55685;BME280;41883;49.544;8.646;2023-07-20T14:44:30;100067.72;;;28.06;nan
55685;BME280;41883;49.544;8.646;2023-07-20T14:46:55;100069.97;;;27.89;nan
55685;BME280;41883;49.544;8.646;2023-07-20T14:49:20;100074.88;;;27.71;nan
55685;BME280;41883;49.544;8.646;2023-07-20T14:51:46;100061.91;;;27.58;nan
55685;BME280;41883;49.544;8.646;2023-07-20T14:54:12;100063.78;;;27.52;nan
55685;BME280;41883;49.544;8.646;2023-07-20T14:56:37;100052.09;;;27.62;nan
55685;BME280;41883;49.544;8.646;2023-07-20T14:59:03;100067.25;;;27.79;nan
55685;BME280;41883;49.544;8.646;2023-07-20T15:01:29;100058.88;;;27.70;nan
55685;BME280;41883;49.544;8.646;2023-07-20T15:03:54;100057.31;;;27.43;nan
55685;BME280;41883;49.544;8.646;2023-07-20T15:06:21;100054.34;;;27.19;nan
55685;BME280;41883;49.544;8.646;2023-07-20T15:08:46;100048.66;;;27.00;nan
55685;BME280;41883;49.544;8.646;2023-07-20T15:11:11;100054.38;;;26.73;nan
55685;BME280;41883;49.544;8.646;2023-07-20T15:13:37;100045.69;;;26.56;nan
55685;BME280;41883;49.544;8.646;2023-07-20T15:18:27;100050.78;;;26.47;nan
55685;BME280;41883;49.544;8.646;2023-07-20T15:23:18;100038.63;;;26.80;nan
55685;BME280;41883;49.544;8.646;2023-07-20T15:25:44;100042.44;;;26.84;nan
55685;BME280;41883;49.544;8.646;2023-07-20T15:28:09;100036.19;;;26.94;nan
55685;BME280;41883;49.544;8.646;2023-07-20T15:30:34;100038.88;;;27.09;nan
55685;BME280;41883;49.544;8.646;2023-07-20T15:32:59;100035.38;;;27.04;nan
55685;BME280;41883;49.544;8.646;2023-07-20T15:35:25;100026.66;;;27.12;nan
55685;BME280;41883;49.544;8.646;2023-07-20T15:37:50;100019.63;;;26.96;nan
55685;BME280;41883;49.544;8.646;2023-07-20T15:40:15;100026.69;;;26.61;nan
55685;BME280;41883;49.544;8.646;2023-07-20T15:42:40;100018.25;;;26.37;nan
55685;BME280;41883;49.544;8.646;2023-07-20T15:45:06;100020.09;;;26.26;nan
55685;BME280;41883;49.544;8.646;2023-07-20T15:47:31;100018.19;;;26.21;nan
55685;BME280;41883;49.544;8.646;2023-07-20T15:49:56;100012.25;;;26.24;nan
55685;BME280;41883;49.544;8.646;2023-07-20T15:52:22;100003.03;;;26.41;nan
55685;BME280;41883;49.544;8.646;2023-07-20T15:54:48;100008.25;;;26.63;nan
55685;BME280;41883;49.544;8.646;2023-07-20T15:57:13;99993.00;;;27.03;nan
55685;BME280;41883;49.544;8.646;2023-07-20T15:59:38;100004.44;;;27.20;nan
55685;BME280;41883;49.544;8.646;2023-07-20T16:02:04;100004.53;;;27.70;nan
55685;BME280;41883;49.544;8.646;2023-07-20T16:04:32;99994.03;;;27.43;nan
55685;BME280;41883;49.544;8.646;2023-07-20T16:06:57;99995.72;;;27.03;nan
55685;BME280;41883;49.544;8.646;2023-07-20T16:09:22;99983.59;;;26.75;nan
55685;BME280;41883;49.544;8.646;2023-07-20T16:11:48;99977.88;;;26.71;nan
55685;BME280;41883;49.544;8.646;2023-07-20T16:14:13;99980.06;;;26.59;nan
55685;BME280;41883;49.544;8.646;2023-07-20T16:16:38;99971.63;;;26.71;nan
55685;BME280;41883;49.544;8.646;2023-07-20T16:19:04;99972.19;;;26.57;nan
55685;BME280;41883;49.544;8.646;2023-07-20T16:21:29;99982.19;;;26.46;nan
55685;BME280;41883;49.544;8.646;2023-07-20T16:23:54;99972.16;;;26.37;nan
55685;BME280;41883;49.544;8.646;2023-07-20T16:28:45;99969.94;;;26.03;nan
55685;BME280;41883;49.544;8.646;2023-07-20T16:31:10;99979.31;;;25.80;nan
55685;BME280;41883;49.544;8.646;2023-07-20T16:33:39;99970.91;;;25.71;nan
55685;BME280;41883;49.544;8.646;2023-07-20T16:38:39;99966.84;;;25.79;nan
55685;BME280;41883;49.544;8.646;2023-07-20T16:41:05;99971.81;;;25.92;nan
55685;BME280;41883;49.544;8.646;2023-07-20T16:43:31;99966.94;;;25.99;nan
55685;BME280;41883;49.544;8.646;2023-07-20T16:46:00;99958.81;;;26.04;nan
55685;BME280;41883;49.544;8.646;2023-07-20T16:48:26;99957.47;;;26.07;nan
55685;BME280;41883;49.544;8.646;2023-07-20T16:50:51;99968.88;;;26.14;nan
55685;BME280;41883;49.544;8.646;2023-07-20T16:53:16;99954.00;;;26.22;nan
55685;BME280;41883;49.544;8.646;2023-07-20T16:55:41;99946.66;;;26.27;nan
55685;BME280;41883;49.544;8.646;2023-07-20T16:58:10;99956.16;;;26.30;nan
55685;BME280;41883;49.544;8.646;2023-07-20T17:00:35;99950.44;;;26.21;nan
55685;BME280;41883;49.544;8.646;2023-07-20T17:03:01;99950.69;;;26.10;nan
55685;BME280;41883;49.544;8.646;2023-07-20T17:05:27;99940.16;;;26.08;nan
55685;BME280;41883;49.544;8.646;2023-07-20T17:07:54;99943.13;;;26.01;nan
55685;BME280;41883;49.544;8.646;2023-07-20T17:10:21;99944.72;;;25.87;nan
55685;BME280;41883;49.544;8.646;2023-07-20T17:12:46;99938.16;;;25.83;nan
55685;BME280;41883;49.544;8.646;2023-07-20T17:15:12;99938.44;;;25.81;nan
55685;BME280;41883;49.544;8.646;2023-07-20T17:17:37;99943.03;;;25.81;nan
55685;BME280;41883;49.544;8.646;2023-07-20T17:20:02;99940.06;;;25.82;nan
55685;BME280;41883;49.544;8.646;2023-07-20T17:22:30;99944.13;;;25.85;nan
55685;BME280;41883;49.544;8.646;2023-07-20T17:24:55;99935.44;;;25.83;nan
55685;BME280;41883;49.544;8.646;2023-07-20T17:27:20;99938.97;;;25.78;nan
55685;BME280;41883;49.544;8.646;2023-07-20T17:29:46;99938.94;;;25.68;nan
55685;BME280;41883;49.544;8.646;2023-07-20T17:32:11;99928.91;;;25.69;nan
55685;BME280;41883;49.544;8.646;2023-07-20T17:34:36;99941.34;;;25.64;nan
55685;BME280;41883;49.544;8.646;2023-07-20T17:37:02;99934.31;;;25.58;nan
55685;BME280;41883;49.544;8.646;2023-07-20T17:39:27;99935.94;;;25.59;nan
55685;BME280;41883;49.544;8.646;2023-07-20T17:44:23;99941.91;;;25.61;nan
55685;BME280;41883;49.544;8.646;2023-07-20T17:46:51;99934.31;;;25.58;nan
55685;BME280;41883;49.544;8.646;2023-07-20T17:49:19;99932.94;;;25.51;nan
55685;BME280;41883;49.544;8.646;2023-07-20T17:51:44;99935.34;;;25.47;nan
55685;BME280;41883;49.544;8.646;2023-07-20T17:54:12;99934.78;;;25.45;nan
55685;BME280;41883;49.544;8.646;2023-07-20T17:56:37;99930.44;;;25.34;nan
55685;BME280;41883;49.544;8.646;2023-07-20T17:59:08;99926.63;;;25.30;nan
55685;BME280;41883;49.544;8.646;2023-07-20T18:01:36;99928.78;;;25.28;nan
55685;BME280;41883;49.544;8.646;2023-07-20T18:04:02;99927.66;;;25.18;nan
55685;BME280;41883;49.544;8.646;2023-07-20T18:08:56;99925.25;;;25.22;nan
55685;BME280;41883;49.544;8.646;2023-07-20T18:11:22;99925.50;;;25.26;nan
55685;BME280;41883;49.544;8.646;2023-07-20T18:13:47;99930.38;;;25.29;nan
55685;BME280;41883;49.544;8.646;2023-07-20T18:16:13;99930.91;;;25.26;nan
55685;BME280;41883;49.544;8.646;2023-07-20T18:18:38;99930.66;;;25.22;nan
55685;BME280;41883;49.544;8.646;2023-07-20T18:21:04;99926.25;;;25.16;nan
55685;BME280;41883;49.544;8.646;2023-07-20T18:23:29;99927.00;;;25.06;nan
55685;BME280;41883;49.544;8.646;2023-07-20T18:25:57;99926.19;;;25.00;nan
55685;BME280;41883;49.544;8.646;2023-07-20T18:28:25;99920.44;;;24.92;nan
55685;BME280;41883;49.544;8.646;2023-07-20T18:30:50;99930.94;;;24.88;nan
55685;BME280;41883;49.544;8.646;2023-07-20T18:33:16;99922.81;;;24.83;nan
55685;BME280;41883;49.544;8.646;2023-07-20T18:35:46;99918.47;;;24.77;nan
55685;BME280;41883;49.544;8.646;2023-07-20T18:38:14;99931.06;;;24.61;nan
55685;BME280;41883;49.544;8.646;2023-07-20T18:40:42;99932.59;;;24.52;nan
55685;BME280;41883;49.544;8.646;2023-07-20T18:43:10;99936.06;;;24.47;nan
55685;BME280;41883;49.544;8.646;2023-07-20T18:45:39;99925.97;;;24.37;nan
55685;BME280;41883;49.544;8.646;2023-07-20T18:48:05;99924.56;;;24.30;nan
55685;BME280;41883;49.544;8.646;2023-07-20T18:50:31;99931.81;;;24.24;nan
55685;BME280;41883;49.544;8.646;2023-07-20T18:55:25;99931.09;;;24.07;nan
55685;BME280;41883;49.544;8.646;2023-07-20T18:57:54;99933.47;;;23.98;nan
55685;BME280;41883;49.544;8.646;2023-07-20T19:00:19;99937.41;;;23.90;nan
55685;BME280;41883;49.544;8.646;2023-07-20T19:02:45;99927.66;;;23.84;nan
55685;BME280;41883;49.544;8.646;2023-07-20T19:05:10;99919.78;;;23.83;nan
55685;BME280;41883;49.544;8.646;2023-07-20T19:07:36;99930.28;;;23.79;nan
55685;BME280;41883;49.544;8.646;2023-07-20T19:10:02;99931.63;;;23.77;nan
55685;BME280;41883;49.544;8.646;2023-07-20T19:12:27;99932.16;;;23.79;nan
55685;BME280;41883;49.544;8.646;2023-07-20T19:14:53;99936.19;;;23.76;nan
55685;BME280;41883;49.544;8.646;2023-07-20T19:17:18;99941.84;;;23.74;nan
55685;BME280;41883;49.544;8.646;2023-07-20T19:19:45;99937.31;;;23.80;nan
55685;BME280;41883;49.544;8.646;2023-07-20T19:22:10;99941.09;;;23.79;nan
55685;BME280;41883;49.544;8.646;2023-07-20T19:24:36;99950.38;;;23.88;nan
55685;BME280;41883;49.544;8.646;2023-07-20T19:27:04;99934.84;;;23.79;nan
55685;BME280;41883;49.544;8.646;2023-07-20T19:29:29;99935.19;;;23.82;nan
55685;BME280;41883;49.544;8.646;2023-07-20T19:31:55;99941.84;;;23.74;nan
55685;BME280;41883;49.544;8.646;2023-07-20T19:34:20;99947.97;;;23.70;nan
55685;BME280;41883;49.544;8.646;2023-07-20T19:36:46;99935.25;;;23.65;nan
55685;BME280;41883;49.544;8.646;2023-07-20T19:39:14;99944.66;;;23.63;nan
55685;BME280;41883;49.544;8.646;2023-07-20T19:41:39;99947.31;;;23.58;nan
55685;BME280;41883;49.544;8.646;2023-07-20T19:44:04;99953.25;;;23.60;nan
55685;BME280;41883;49.544;8.646;2023-07-20T19:46:30;99953.75;;;23.57;nan
55685;BME280;41883;49.544;8.646;2023-07-20T19:48:55;99956.56;;;23.45;nan
55685;BME280;41883;49.544;8.646;2023-07-20T19:51:21;99954.38;;;23.42;nan
55685;BME280;41883;49.544;8.646;2023-07-20T19:56:12;99956.44;;;23.35;nan
55685;BME280;41883;49.544;8.646;2023-07-20T19:58:37;99960.03;;;23.40;nan
55685;BME280;41883;49.544;8.646;2023-07-20T20:01:03;99956.44;;;23.35;nan
55685;BME280;41883;49.544;8.646;2023-07-20T20:03:28;99963.16;;;23.32;nan
55685;BME280;41883;49.544;8.646;2023-07-20T20:05:54;99964.16;;;23.26;nan
55685;BME280;41883;49.544;8.646;2023-07-20T20:08:22;99963.97;;;23.32;nan
55685;BME280;41883;49.544;8.646;2023-07-20T20:10:47;99964.72;;;23.28;nan
55685;BME280;41883;49.544;8.646;2023-07-20T20:13:15;99961.97;;;23.23;nan
55685;BME280;41883;49.544;8.646;2023-07-20T20:15:40;99948.34;;;23.13;nan
55685;BME280;41883;49.544;8.646;2023-07-20T20:18:06;99953.56;;;23.19;nan
55685;BME280;41883;49.544;8.646;2023-07-20T20:22:58;99940.19;;;23.07;nan
55685;BME280;41883;49.544;8.646;2023-07-20T20:25:24;99942.31;;;23.05;nan
55685;BME280;41883;49.544;8.646;2023-07-20T20:27:49;99945.00;;;23.05;nan
55685;BME280;41883;49.544;8.646;2023-07-20T20:30:15;99951.16;;;23.01;nan
55685;BME280;41883;49.544;8.646;2023-07-20T20:32:40;99934.47;;;22.87;nan
55685;BME280;41883;49.544;8.646;2023-07-20T20:35:07;99943.53;;;22.81;nan
55685;BME280;41883;49.544;8.646;2023-07-20T20:37:32;99942.47;;;22.82;nan
55685;BME280;41883;49.544;8.646;2023-07-20T20:39:58;99934.31;;;22.77;nan
55685;BME280;41883;49.544;8.646;2023-07-20T20:42:23;99947.53;;;22.78;nan
55685;BME280;41883;49.544;8.646;2023-07-20T20:44:49;99943.44;;;22.76;nan
55685;BME280;41883;49.544;8.646;2023-07-20T20:47:17;99944.25;;;22.76;nan
55685;BME280;41883;49.544;8.646;2023-07-20T20:49:42;99945.25;;;22.70;nan